Terminal Aerodrome Forecast
Issued by NWS Green Bay, WI

Home | Current Version | Previous Version | Text Only | Print | Product List | Glossary Off
Versions: 1 2 3 4 5 6 7 8 9 10 11 12 13 14 15 16 17 18 19 20 21 22 23 24 25 26 27 28 29

000
FTUS43 KGRB 181700
TAFGRB
TAF
KGRB 181720Z 1818/1918 33010KT P6SM FEW035 SCT100
     FM182200 04009G15KT P6SM SCT100 SCT250
     FM190100 07008KT P6SM SCT100 BKN250
     FM190700 08007KT P6SM SCT090 BKN150
     FM191500 14013G18KT P6SM FEW040 BKN120=

USA.gov is the U.S. government's official web portal to all federal, state and local government web resources and services.